sensor_id;sensor_type;location;lat;lon;timestamp;P1;durP1;ratioP1;P2;durP2;ratioP2
44026;SDS011;29696;55.698;37.460;2022-11-20T00:01:19;10.77;;;8.00;;
44026;SDS011;29696;55.698;37.460;2022-11-20T00:03:47;10.93;;;6.97;;
44026;SDS011;29696;55.698;37.460;2022-11-20T00:06:15;9.77;;;7.07;;
44026;SDS011;29696;55.698;37.460;2022-11-20T00:08:43;12.17;;;8.53;;
44026;SDS011;29696;55.698;37.460;2022-11-20T00:14:00;12.17;;;7.43;;
44026;SDS011;29696;55.698;37.460;2022-11-20T00:16:29;10.00;;;7.93;;
44026;SDS011;29696;55.698;37.460;2022-11-20T00:18:57;10.63;;;8.70;;
44026;SDS011;29696;55.698;37.460;2022-11-20T00:21:24;11.50;;;9.23;;
44026;SDS011;29696;55.698;37.460;2022-11-20T00:23:53;14.10;;;10.47;;
44026;SDS011;29696;55.698;37.460;2022-11-20T00:26:22;13.50;;;9.87;;
44026;SDS011;29696;55.698;37.460;2022-11-20T00:28:51;16.33;;;11.53;;
44026;SDS011;29696;55.698;37.460;2022-11-20T00:31:19;16.63;;;12.07;;
44026;SDS011;29696;55.698;37.460;2022-11-20T00:33:46;13.50;;;10.50;;
44026;SDS011;29696;55.698;37.460;2022-11-20T00:36:13;17.13;;;10.73;;
44026;SDS011;29696;55.698;37.460;2022-11-20T00:38:42;14.23;;;10.37;;
44026;SDS011;29696;55.698;37.460;2022-11-20T00:41:10;13.83;;;10.73;;
44026;SDS011;29696;55.698;37.460;2022-11-20T00:43:39;16.43;;;11.97;;
44026;SDS011;29696;55.698;37.460;2022-11-20T00:46:07;16.57;;;10.53;;
44026;SDS011;29696;55.698;37.460;2022-11-20T00:48:35;13.40;;;10.53;;
44026;SDS011;29696;55.698;37.460;2022-11-20T00:51:01;13.47;;;10.97;;
44026;SDS011;29696;55.698;37.460;2022-11-20T00:53:27;16.97;;;11.30;;
44026;SDS011;29696;55.698;37.460;2022-11-20T00:56:06;15.93;;;10.83;;
44026;SDS011;29696;55.698;37.460;2022-11-20T00:58:36;13.97;;;10.73;;
44026;SDS011;29696;55.698;37.460;2022-11-20T01:01:05;16.30;;;10.80;;
44026;SDS011;29696;55.698;37.460;2022-11-20T01:03:55;13.97;;;9.77;;
44026;SDS011;29696;55.698;37.460;2022-11-20T01:06:27;14.73;;;11.07;;
44026;SDS011;29696;55.698;37.460;2022-11-20T01:08:56;16.17;;;9.97;;
44026;SDS011;29696;55.698;37.460;2022-11-20T01:11:26;13.40;;;9.73;;
44026;SDS011;29696;55.698;37.460;2022-11-20T01:13:57;14.43;;;9.80;;
44026;SDS011;29696;55.698;37.460;2022-11-20T01:16:29;15.40;;;8.93;;
44026;SDS011;29696;55.698;37.460;2022-11-20T01:19:01;16.57;;;9.20;;
44026;SDS011;29696;55.698;37.460;2022-11-20T01:21:49;11.30;;;8.90;;
44026;SDS011;29696;55.698;37.460;2022-11-20T01:24:17;15.07;;;9.53;;
44026;SDS011;29696;55.698;37.460;2022-11-20T01:26:46;11.40;;;7.47;;
44026;SDS011;29696;55.698;37.460;2022-11-20T01:29:15;12.10;;;8.73;;
44026;SDS011;29696;55.698;37.460;2022-11-20T01:31:46;15.73;;;9.90;;
44026;SDS011;29696;55.698;37.460;2022-11-20T01:34:15;13.57;;;9.10;;
44026;SDS011;29696;55.698;37.460;2022-11-20T01:36:43;11.93;;;8.40;;
44026;SDS011;29696;55.698;37.460;2022-11-20T01:39:11;12.83;;;8.07;;
44026;SDS011;29696;55.698;37.460;2022-11-20T01:41:43;13.17;;;8.37;;
44026;SDS011;29696;55.698;37.460;2022-11-20T01:47:34;12.27;;;8.85;;
44026;SDS011;29696;55.698;37.460;2022-11-20T01:50:23;9.60;;;7.03;;
44026;SDS011;29696;55.698;37.460;2022-11-20T01:55:50;16.67;;;8.87;;
44026;SDS011;29696;55.698;37.460;2022-11-20T01:58:20;9.70;;;8.30;;
44026;SDS011;29696;55.698;37.460;2022-11-20T02:00:51;10.47;;;7.53;;
44026;SDS011;29696;55.698;37.460;2022-11-20T02:03:18;14.43;;;9.63;;
44026;SDS011;29696;55.698;37.460;2022-11-20T02:05:47;11.80;;;9.27;;
44026;SDS011;29696;55.698;37.460;2022-11-20T02:08:17;13.30;;;10.93;;
44026;SDS011;29696;55.698;37.460;2022-11-20T02:10:45;13.93;;;10.20;;
44026;SDS011;29696;55.698;37.460;2022-11-20T02:13:11;15.33;;;9.43;;
44026;SDS011;29696;55.698;37.460;2022-11-20T02:15:56;13.43;;;8.80;;
44026;SDS011;29696;55.698;37.460;2022-11-20T02:18:22;12.80;;;8.53;;
44026;SDS011;29696;55.698;37.460;2022-11-20T02:20:53;12.83;;;9.17;;
44026;SDS011;29696;55.698;37.460;2022-11-20T02:26:32;12.97;;;8.83;;
44026;SDS011;29696;55.698;37.460;2022-11-20T02:29:03;13.43;;;8.70;;
44026;SDS011;29696;55.698;37.460;2022-11-20T02:31:34;11.57;;;7.80;;
44026;SDS011;29696;55.698;37.460;2022-11-20T02:34:03;10.60;;;7.90;;
44026;SDS011;29696;55.698;37.460;2022-11-20T02:36:29;11.50;;;8.33;;
44026;SDS011;29696;55.698;37.460;2022-11-20T02:38:58;12.27;;;7.60;;
44026;SDS011;29696;55.698;37.460;2022-11-20T02:41:35;13.93;;;9.70;;
44026;SDS011;29696;55.698;37.460;2022-11-20T02:44:03;11.83;;;8.47;;
44026;SDS011;29696;55.698;37.460;2022-11-20T02:46:30;12.70;;;9.13;;
44026;SDS011;29696;55.698;37.460;2022-11-20T02:48:57;13.10;;;8.70;;
44026;SDS011;29696;55.698;37.460;2022-11-20T02:51:24;12.00;;;7.90;;
44026;SDS011;29696;55.698;37.460;2022-11-20T02:53:50;10.83;;;8.63;;
44026;SDS011;29696;55.698;37.460;2022-11-20T02:56:16;12.03;;;8.17;;
44026;SDS011;29696;55.698;37.460;2022-11-20T02:58:43;13.03;;;9.37;;
44026;SDS011;29696;55.698;37.460;2022-11-20T03:01:09;11.30;;;7.83;;
44026;SDS011;29696;55.698;37.460;2022-11-20T03:03:36;13.23;;;8.67;;
44026;SDS011;29696;55.698;37.460;2022-11-20T03:06:02;10.33;;;7.40;;
44026;SDS011;29696;55.698;37.460;2022-11-20T03:08:28;9.03;;;6.87;;
44026;SDS011;29696;55.698;37.460;2022-11-20T03:10:55;11.77;;;7.53;;
44026;SDS011;29696;55.698;37.460;2022-11-20T03:13:21;12.73;;;7.90;;
44026;SDS011;29696;55.698;37.460;2022-11-20T03:15:47;11.10;;;7.90;;
44026;SDS011;29696;55.698;37.460;2022-11-20T03:18:14;13.30;;;7.70;;
44026;SDS011;29696;55.698;37.460;2022-11-20T03:20:40;9.57;;;7.30;;
44026;SDS011;29696;55.698;37.460;2022-11-20T03:23:06;11.73;;;7.10;;
44026;SDS011;29696;55.698;37.460;2022-11-20T03:25:33;10.57;;;6.90;;
44026;SDS011;29696;55.698;37.460;2022-11-20T03:27:59;11.50;;;7.80;;
44026;SDS011;29696;55.698;37.460;2022-11-20T03:30:25;11.27;;;8.00;;
44026;SDS011;29696;55.698;37.460;2022-11-20T03:32:52;12.47;;;7.70;;
44026;SDS011;29696;55.698;37.460;2022-11-20T03:35:19;15.27;;;8.33;;
44026;SDS011;29696;55.698;37.460;2022-11-20T03:37:46;12.17;;;9.07;;
44026;SDS011;29696;55.698;37.460;2022-11-20T03:40:12;16.07;;;9.57;;
44026;SDS011;29696;55.698;37.460;2022-11-20T03:42:38;10.73;;;7.60;;
44026;SDS011;29696;55.698;37.460;2022-11-20T03:45:11;12.37;;;7.50;;
44026;SDS011;29696;55.698;37.460;2022-11-20T03:47:42;15.60;;;8.97;;
44026;SDS011;29696;55.698;37.460;2022-11-20T03:50:09;13.33;;;7.73;;
44026;SDS011;29696;55.698;37.460;2022-11-20T03:52:38;13.10;;;8.47;;
44026;SDS011;29696;55.698;37.460;2022-11-20T03:55:05;11.77;;;8.10;;
44026;SDS011;29696;55.698;37.460;2022-11-20T03:57:32;17.03;;;8.10;;
44026;SDS011;29696;55.698;37.460;2022-11-20T03:59:58;11.33;;;7.03;;
44026;SDS011;29696;55.698;37.460;2022-11-20T04:02:25;12.70;;;7.37;;
44026;SDS011;29696;55.698;37.460;2022-11-20T04:04:51;13.20;;;9.10;;
44026;SDS011;29696;55.698;37.460;2022-11-20T04:07:17;12.07;;;7.43;;
44026;SDS011;29696;55.698;37.460;2022-11-20T04:09:44;12.23;;;8.30;;
44026;SDS011;29696;55.698;37.460;2022-11-20T04:12:10;11.00;;;8.03;;
44026;SDS011;29696;55.698;37.460;2022-11-20T04:14:36;12.30;;;8.23;;
44026;SDS011;29696;55.698;37.460;2022-11-20T04:17:03;12.33;;;8.40;;
44026;SDS011;29696;55.698;37.460;2022-11-20T04:19:29;11.93;;;8.73;;
44026;SDS011;29696;55.698;37.460;2022-11-20T04:21:56;11.50;;;7.93;;
44026;SDS011;29696;55.698;37.460;2022-11-20T04:24:22;16.57;;;8.67;;
44026;SDS011;29696;55.698;37.460;2022-11-20T04:26:48;12.33;;;9.00;;
44026;SDS011;29696;55.698;37.460;2022-11-20T04:29:14;13.37;;;7.93;;
44026;SDS011;29696;55.698;37.460;2022-11-20T04:31:41;12.40;;;8.73;;
44026;SDS011;29696;55.698;37.460;2022-11-20T04:34:07;11.73;;;8.83;;
44026;SDS011;29696;55.698;37.460;2022-11-20T04:36:34;16.53;;;8.57;;
44026;SDS011;29696;55.698;37.460;2022-11-20T04:39:01;12.80;;;9.17;;
44026;SDS011;29696;55.698;37.460;2022-11-20T04:41:33;10.43;;;8.13;;
44026;SDS011;29696;55.698;37.460;2022-11-20T04:44:02;11.20;;;8.63;;
44026;SDS011;29696;55.698;37.460;2022-11-20T04:46:31;12.17;;;9.27;;
44026;SDS011;29696;55.698;37.460;2022-11-20T04:49:01;16.50;;;9.73;;
44026;SDS011;29696;55.698;37.460;2022-11-20T04:51:28;12.10;;;8.57;;
44026;SDS011;29696;55.698;37.460;2022-11-20T04:53:54;15.77;;;9.17;;
44026;SDS011;29696;55.698;37.460;2022-11-20T04:56:21;14.77;;;9.47;;
44026;SDS011;29696;55.698;37.460;2022-11-20T04:58:48;13.80;;;8.23;;
44026;SDS011;29696;55.698;37.460;2022-11-20T05:01:16;14.97;;;9.00;;
44026;SDS011;29696;55.698;37.460;2022-11-20T05:03:48;13.07;;;8.63;;
44026;SDS011;29696;55.698;37.460;2022-11-20T05:06:15;11.27;;;7.23;;
44026;SDS011;29696;55.698;37.460;2022-11-20T05:08:44;12.67;;;8.50;;
44026;SDS011;29696;55.698;37.460;2022-11-20T05:11:11;10.90;;;9.13;;
44026;SDS011;29696;55.698;37.460;2022-11-20T05:13:39;15.20;;;8.87;;
44026;SDS011;29696;55.698;37.460;2022-11-20T05:16:07;12.37;;;8.63;;
44026;SDS011;29696;55.698;37.460;2022-11-20T05:18:35;21.53;;;9.07;;
44026;SDS011;29696;55.698;37.460;2022-11-20T05:21:02;13.90;;;9.77;;
44026;SDS011;29696;55.698;37.460;2022-11-20T05:23:29;17.13;;;10.30;;
44026;SDS011;29696;55.698;37.460;2022-11-20T05:25:57;18.30;;;8.90;;
44026;SDS011;29696;55.698;37.460;2022-11-20T05:28:23;12.97;;;9.87;;
44026;SDS011;29696;55.698;37.460;2022-11-20T05:30:50;14.07;;;8.67;;
44026;SDS011;29696;55.698;37.460;2022-11-20T05:33:17;11.37;;;8.83;;
44026;SDS011;29696;55.698;37.460;2022-11-20T05:35:43;14.93;;;10.90;;
44026;SDS011;29696;55.698;37.460;2022-11-20T05:38:10;15.97;;;10.20;;
44026;SDS011;29696;55.698;37.460;2022-11-20T05:40:36;12.93;;;9.63;;
44026;SDS011;29696;55.698;37.460;2022-11-20T05:43:03;15.43;;;9.00;;
44026;SDS011;29696;55.698;37.460;2022-11-20T05:45:29;15.03;;;8.80;;
44026;SDS011;29696;55.698;37.460;2022-11-20T05:47:59;13.73;;;10.00;;
44026;SDS011;29696;55.698;37.460;2022-11-20T05:50:29;15.90;;;10.27;;
44026;SDS011;29696;55.698;37.460;2022-11-20T05:52:57;9.17;;;7.83;;
44026;SDS011;29696;55.698;37.460;2022-11-20T05:55:25;15.30;;;9.00;;
44026;SDS011;29696;55.698;37.460;2022-11-20T05:57:53;14.60;;;9.70;;
44026;SDS011;29696;55.698;37.460;2022-11-20T06:00:20;14.70;;;9.67;;
44026;SDS011;29696;55.698;37.460;2022-11-20T06:02:47;14.70;;;10.30;;
44026;SDS011;29696;55.698;37.460;2022-11-20T06:05:13;13.93;;;9.93;;
44026;SDS011;29696;55.698;37.460;2022-11-20T06:07:39;11.80;;;7.80;;
44026;SDS011;29696;55.698;37.460;2022-11-20T06:10:06;15.63;;;10.33;;
44026;SDS011;29696;55.698;37.460;2022-11-20T06:12:32;22.00;;;10.93;;
44026;SDS011;29696;55.698;37.460;2022-11-20T06:14:59;14.93;;;9.77;;
44026;SDS011;29696;55.698;37.460;2022-11-20T06:17:25;13.27;;;9.67;;
44026;SDS011;29696;55.698;37.460;2022-11-20T06:19:52;13.90;;;9.13;;
44026;SDS011;29696;55.698;37.460;2022-11-20T06:22:18;12.73;;;9.57;;
44026;SDS011;29696;55.698;37.460;2022-11-20T06:24:44;25.17;;;11.00;;
44026;SDS011;29696;55.698;37.460;2022-11-20T06:27:11;15.23;;;9.97;;
44026;SDS011;29696;55.698;37.460;2022-11-20T06:29:37;21.57;;;10.77;;
44026;SDS011;29696;55.698;37.460;2022-11-20T06:32:03;16.27;;;10.23;;
44026;SDS011;29696;55.698;37.460;2022-11-20T06:34:30;14.27;;;9.90;;
44026;SDS011;29696;55.698;37.460;2022-11-20T06:36:56;15.03;;;11.00;;
44026;SDS011;29696;55.698;37.460;2022-11-20T06:39:22;16.87;;;9.60;;
44026;SDS011;29696;55.698;37.460;2022-11-20T06:41:48;20.43;;;10.80;;
44026;SDS011;29696;55.698;37.460;2022-11-20T06:44:15;15.43;;;10.37;;
44026;SDS011;29696;55.698;37.460;2022-11-20T06:46:41;19.77;;;12.77;;
44026;SDS011;29696;55.698;37.460;2022-11-20T06:49:07;16.57;;;10.73;;
44026;SDS011;29696;55.698;37.460;2022-11-20T06:51:33;15.60;;;10.77;;
44026;SDS011;29696;55.698;37.460;2022-11-20T06:54:00;15.80;;;10.07;;
44026;SDS011;29696;55.698;37.460;2022-11-20T06:56:26;19.00;;;11.77;;
44026;SDS011;29696;55.698;37.460;2022-11-20T06:58:53;15.53;;;10.70;;
44026;SDS011;29696;55.698;37.460;2022-11-20T07:01:20;14.57;;;10.90;;
44026;SDS011;29696;55.698;37.460;2022-11-20T07:03:48;26.60;;;11.47;;
44026;SDS011;29696;55.698;37.460;2022-11-20T07:06:16;15.83;;;10.10;;
44026;SDS011;29696;55.698;37.460;2022-11-20T07:08:43;16.50;;;12.20;;
44026;SDS011;29696;55.698;37.460;2022-11-20T07:11:11;17.10;;;10.77;;
44026;SDS011;29696;55.698;37.460;2022-11-20T07:13:37;19.83;;;11.37;;
44026;SDS011;29696;55.698;37.460;2022-11-20T07:16:05;19.03;;;11.00;;
44026;SDS011;29696;55.698;37.460;2022-11-20T07:18:33;14.53;;;11.00;;
44026;SDS011;29696;55.698;37.460;2022-11-20T07:21:00;20.00;;;11.70;;
44026;SDS011;29696;55.698;37.460;2022-11-20T07:23:31;19.23;;;11.50;;
44026;SDS011;29696;55.698;37.460;2022-11-20T07:25:57;23.90;;;12.73;;
44026;SDS011;29696;55.698;37.460;2022-11-20T07:28:24;22.80;;;12.33;;
44026;SDS011;29696;55.698;37.460;2022-11-20T07:30:51;18.50;;;11.10;;
44026;SDS011;29696;55.698;37.460;2022-11-20T07:33:19;17.73;;;12.17;;
44026;SDS011;29696;55.698;37.460;2022-11-20T07:35:45;17.07;;;12.13;;
44026;SDS011;29696;55.698;37.460;2022-11-20T07:38:12;20.13;;;12.77;;
44026;SDS011;29696;55.698;37.460;2022-11-20T07:40:38;26.30;;;13.23;;
44026;SDS011;29696;55.698;37.460;2022-11-20T07:43:04;23.83;;;13.40;;
44026;SDS011;29696;55.698;37.460;2022-11-20T07:45:31;18.60;;;11.43;;
44026;SDS011;29696;55.698;37.460;2022-11-20T07:47:57;16.90;;;13.73;;
44026;SDS011;29696;55.698;37.460;2022-11-20T07:50:23;16.93;;;12.27;;
44026;SDS011;29696;55.698;37.460;2022-11-20T07:52:50;21.10;;;14.17;;
44026;SDS011;29696;55.698;37.460;2022-11-20T07:55:16;20.33;;;14.60;;
44026;SDS011;29696;55.698;37.460;2022-11-20T07:57:42;22.30;;;13.07;;
44026;SDS011;29696;55.698;37.460;2022-11-20T08:00:10;19.00;;;11.90;;
44026;SDS011;29696;55.698;37.460;2022-11-20T08:02:40;20.53;;;13.20;;
44026;SDS011;29696;55.698;37.460;2022-11-20T08:05:07;24.23;;;13.67;;
44026;SDS011;29696;55.698;37.460;2022-11-20T08:07:41;25.67;;;14.50;;
44026;SDS011;29696;55.698;37.460;2022-11-20T08:10:10;25.40;;;13.02;;
44026;SDS011;29696;55.698;37.460;2022-11-20T08:12:48;18.30;;;12.90;;
44026;SDS011;29696;55.698;37.460;2022-11-20T08:15:37;18.77;;;13.17;;
44026;SDS011;29696;55.698;37.460;2022-11-20T08:18:06;19.73;;;12.87;;
44026;SDS011;29696;55.698;37.460;2022-11-20T08:20:34;21.03;;;12.77;;
44026;SDS011;29696;55.698;37.460;2022-11-20T08:23:01;20.37;;;13.50;;
44026;SDS011;29696;55.698;37.460;2022-11-20T08:25:29;24.13;;;13.00;;
44026;SDS011;29696;55.698;37.460;2022-11-20T08:27:59;22.70;;;13.57;;
44026;SDS011;29696;55.698;37.460;2022-11-20T08:30:26;16.73;;;12.53;;
44026;SDS011;29696;55.698;37.460;2022-11-20T08:32:53;22.00;;;13.13;;
44026;SDS011;29696;55.698;37.460;2022-11-20T08:35:20;22.50;;;14.07;;
44026;SDS011;29696;55.698;37.460;2022-11-20T08:37:48;18.27;;;12.67;;
44026;SDS011;29696;55.698;37.460;2022-11-20T08:40:14;37.50;;;15.60;;
44026;SDS011;29696;55.698;37.460;2022-11-20T08:42:47;23.50;;;15.23;;
44026;SDS011;29696;55.698;37.460;2022-11-20T08:45:15;22.27;;;14.23;;
44026;SDS011;29696;55.698;37.460;2022-11-20T08:47:44;27.33;;;15.67;;
44026;SDS011;29696;55.698;37.460;2022-11-20T08:50:12;24.83;;;16.10;;
44026;SDS011;29696;55.698;37.460;2022-11-20T08:52:39;25.40;;;16.67;;
44026;SDS011;29696;55.698;37.460;2022-11-20T08:55:06;22.40;;;15.73;;
44026;SDS011;29696;55.698;37.460;2022-11-20T08:57:33;24.57;;;16.13;;
44026;SDS011;29696;55.698;37.460;2022-11-20T09:00:01;20.50;;;14.07;;
44026;SDS011;29696;55.698;37.460;2022-11-20T09:02:30;27.87;;;16.50;;
44026;SDS011;29696;55.698;37.460;2022-11-20T09:04:58;30.93;;;16.20;;
44026;SDS011;29696;55.698;37.460;2022-11-20T09:07:24;27.07;;;13.70;;
44026;SDS011;29696;55.698;37.460;2022-11-20T09:09:50;29.93;;;17.50;;
44026;SDS011;29696;55.698;37.460;2022-11-20T09:12:17;22.90;;;14.47;;
44026;SDS011;29696;55.698;37.460;2022-11-20T09:14:43;25.93;;;15.80;;
44026;SDS011;29696;55.698;37.460;2022-11-20T09:17:10;26.13;;;16.63;;
44026;SDS011;29696;55.698;37.460;2022-11-20T09:19:39;25.00;;;15.73;;
44026;SDS011;29696;55.698;37.460;2022-11-20T09:22:06;27.73;;;15.87;;
44026;SDS011;29696;55.698;37.460;2022-11-20T09:24:32;27.13;;;16.43;;
44026;SDS011;29696;55.698;37.460;2022-11-20T09:27:01;29.93;;;19.03;;
44026;SDS011;29696;55.698;37.460;2022-11-20T09:29:28;26.67;;;15.87;;
44026;SDS011;29696;55.698;37.460;2022-11-20T09:31:55;29.53;;;16.87;;
44026;SDS011;29696;55.698;37.460;2022-11-20T09:34:21;38.20;;;19.60;;
44026;SDS011;29696;55.698;37.460;2022-11-20T09:36:48;24.03;;;16.07;;
44026;SDS011;29696;55.698;37.460;2022-11-20T09:39:14;28.63;;;16.20;;
44026;SDS011;29696;55.698;37.460;2022-11-20T09:54:27;28.77;;;16.03;;
44026;SDS011;29696;55.698;37.460;2022-11-20T09:57:04;26.60;;;14.50;;
44026;SDS011;29696;55.698;37.460;2022-11-20T09:59:42;27.60;;;14.03;;
44026;SDS011;29696;55.698;37.460;2022-11-20T10:11:07;26.73;;;14.17;;
44026;SDS011;29696;55.698;37.460;2022-11-20T10:30:42;25.77;;;14.20;;
44026;SDS011;29696;55.698;37.460;2022-11-20T10:33:19;21.77;;;13.73;;
44026;SDS011;29696;55.698;37.460;2022-11-20T10:41:52;23.38;;;14.35;;
44026;SDS011;29696;55.698;37.460;2022-11-20T10:44:25;20.80;;;16.00;;
44026;SDS011;29696;55.698;37.460;2022-11-20T10:47:15;29.73;;;16.20;;
44026;SDS011;29696;55.698;37.460;2022-11-20T10:49:45;19.60;;;14.53;;
44026;SDS011;29696;55.698;37.460;2022-11-20T10:52:24;22.93;;;13.63;;
44026;SDS011;29696;55.698;37.460;2022-11-20T10:58:13;25.77;;;14.10;;
44026;SDS011;29696;55.698;37.460;2022-11-20T11:00:45;23.67;;;14.38;;
44026;SDS011;29696;55.698;37.460;2022-11-20T11:03:27;15.27;;;11.23;;
44026;SDS011;29696;55.698;37.460;2022-11-20T11:05:59;14.02;;;9.05;;
44026;SDS011;29696;55.698;37.460;2022-11-20T11:08:35;16.03;;;8.93;;
44026;SDS011;29696;55.698;37.460;2022-11-20T11:14:14;14.33;;;10.47;;
44026;SDS011;29696;55.698;37.460;2022-11-20T11:16:51;15.73;;;10.03;;
44026;SDS011;29696;55.698;37.460;2022-11-20T11:19:20;18.13;;;11.13;;
44026;SDS011;29696;55.698;37.460;2022-11-20T11:21:47;15.30;;;10.50;;
44026;SDS011;29696;55.698;37.460;2022-11-20T11:24:19;13.23;;;9.73;;
44026;SDS011;29696;55.698;37.460;2022-11-20T11:26:57;14.33;;;9.47;;
44026;SDS011;29696;55.698;37.460;2022-11-20T11:29:25;13.50;;;8.73;;
44026;SDS011;29696;55.698;37.460;2022-11-20T11:32:06;15.87;;;9.87;;
44026;SDS011;29696;55.698;37.460;2022-11-20T11:34:34;13.43;;;9.60;;
44026;SDS011;29696;55.698;37.460;2022-11-20T11:37:00;16.13;;;9.20;;
44026;SDS011;29696;55.698;37.460;2022-11-20T11:39:29;15.43;;;10.93;;
44026;SDS011;29696;55.698;37.460;2022-11-20T11:41:57;11.83;;;9.40;;
44026;SDS011;29696;55.698;37.460;2022-11-20T11:44:32;14.53;;;10.10;;
44026;SDS011;29696;55.698;37.460;2022-11-20T11:50:29;14.13;;;9.30;;
44026;SDS011;29696;55.698;37.460;2022-11-20T11:58:46;13.57;;;9.50;;
44026;SDS011;29696;55.698;37.460;2022-11-20T12:01:30;16.90;;;9.93;;
44026;SDS011;29696;55.698;37.460;2022-11-20T12:07:15;14.03;;;9.90;;
44026;SDS011;29696;55.698;37.460;2022-11-20T12:09:52;15.00;;;11.00;;
44026;SDS011;29696;55.698;37.460;2022-11-20T12:12:33;14.43;;;10.63;;
44026;SDS011;29696;55.698;37.460;2022-11-20T12:15:13;16.33;;;11.07;;
44026;SDS011;29696;55.698;37.460;2022-11-20T12:17:48;14.50;;;10.43;;
44026;SDS011;29696;55.698;37.460;2022-11-20T12:20:15;15.80;;;10.87;;
44026;SDS011;29696;55.698;37.460;2022-11-20T12:22:54;17.43;;;11.07;;
44026;SDS011;29696;55.698;37.460;2022-11-20T12:25:28;18.43;;;12.80;;
44026;SDS011;29696;55.698;37.460;2022-11-20T12:45:07;15.83;;;10.77;;
44026;SDS011;29696;55.698;37.460;2022-11-20T12:48:19;16.53;;;11.97;;
44026;SDS011;29696;55.698;37.460;2022-11-20T12:57:58;23.40;;;10.83;;
44026;SDS011;29696;55.698;37.460;2022-11-20T13:00:58;16.30;;;10.33;;
44026;SDS011;29696;55.698;37.460;2022-11-20T13:06:33;15.77;;;10.20;;
44026;SDS011;29696;55.698;37.460;2022-11-20T13:08:59;17.67;;;11.20;;
44026;SDS011;29696;55.698;37.460;2022-11-20T13:14:46;17.50;;;12.33;;
44026;SDS011;29696;55.698;37.460;2022-11-20T13:17:21;19.57;;;11.17;;
44026;SDS011;29696;55.698;37.460;2022-11-20T13:19:56;15.10;;;9.00;;
44026;SDS011;29696;55.698;37.460;2022-11-20T13:22:28;17.60;;;8.20;;
44026;SDS011;29696;55.698;37.460;2022-11-20T13:25:21;12.90;;;9.63;;
44026;SDS011;29696;55.698;37.460;2022-11-20T13:27:58;14.33;;;9.90;;
44026;SDS011;29696;55.698;37.460;2022-11-20T13:30:29;13.20;;;9.43;;
44026;SDS011;29696;55.698;37.460;2022-11-20T13:33:07;14.73;;;10.80;;
44026;SDS011;29696;55.698;37.460;2022-11-20T13:35:54;14.97;;;10.03;;
44026;SDS011;29696;55.698;37.460;2022-11-20T13:38:26;19.17;;;10.90;;
44026;SDS011;29696;55.698;37.460;2022-11-20T13:46:59;12.43;;;11.03;;
44026;SDS011;29696;55.698;37.460;2022-11-20T14:01:31;14.53;;;11.57;;
44026;SDS011;29696;55.698;37.460;2022-11-20T14:03:58;17.20;;;11.90;;
44026;SDS011;29696;55.698;37.460;2022-11-20T14:06:26;19.50;;;11.67;;
44026;SDS011;29696;55.698;37.460;2022-11-20T14:09:04;18.23;;;12.73;;
44026;SDS011;29696;55.698;37.460;2022-11-20T14:11:31;16.77;;;12.63;;
44026;SDS011;29696;55.698;37.460;2022-11-20T14:13:58;18.50;;;12.50;;
44026;SDS011;29696;55.698;37.460;2022-11-20T14:16:27;15.40;;;11.23;;
44026;SDS011;29696;55.698;37.460;2022-11-20T14:18:56;18.13;;;12.60;;
44026;SDS011;29696;55.698;37.460;2022-11-20T14:21:27;15.77;;;11.10;;
44026;SDS011;29696;55.698;37.460;2022-11-20T14:24:09;25.70;;;13.87;;
44026;SDS011;29696;55.698;37.460;2022-11-20T14:26:40;15.77;;;12.73;;
44026;SDS011;29696;55.698;37.460;2022-11-20T14:29:13;20.77;;;12.13;;
44026;SDS011;29696;55.698;37.460;2022-11-20T14:31:42;16.30;;;11.33;;
44026;SDS011;29696;55.698;37.460;2022-11-20T14:34:13;17.27;;;11.63;;
44026;SDS011;29696;55.698;37.460;2022-11-20T14:36:42;19.37;;;12.27;;
44026;SDS011;29696;55.698;37.460;2022-11-20T14:39:22;21.13;;;12.37;;
44026;SDS011;29696;55.698;37.460;2022-11-20T14:41:54;21.02;;;14.18;;
44026;SDS011;29696;55.698;37.460;2022-11-20T14:44:22;17.37;;;11.63;;
44026;SDS011;29696;55.698;37.460;2022-11-20T14:46:55;20.57;;;13.17;;
44026;SDS011;29696;55.698;37.460;2022-11-20T14:49:22;21.17;;;13.17;;
44026;SDS011;29696;55.698;37.460;2022-11-20T14:51:59;20.83;;;13.37;;
44026;SDS011;29696;55.698;37.460;2022-11-20T14:54:28;21.07;;;14.37;;
44026;SDS011;29696;55.698;37.460;2022-11-20T14:57:00;17.43;;;12.70;;
44026;SDS011;29696;55.698;37.460;2022-11-20T14:59:29;18.97;;;13.40;;
44026;SDS011;29696;55.698;37.460;2022-11-20T15:02:03;19.87;;;13.07;;
44026;SDS011;29696;55.698;37.460;2022-11-20T15:04:32;17.73;;;13.17;;
44026;SDS011;29696;55.698;37.460;2022-11-20T15:06:59;15.27;;;12.63;;
44026;SDS011;29696;55.698;37.460;2022-11-20T15:09:25;21.87;;;16.70;;
44026;SDS011;29696;55.698;37.460;2022-11-20T15:11:59;21.97;;;15.70;;
44026;SDS011;29696;55.698;37.460;2022-11-20T15:14:28;25.47;;;13.60;;
44026;SDS011;29696;55.698;37.460;2022-11-20T15:16:56;18.93;;;14.07;;
44026;SDS011;29696;55.698;37.460;2022-11-20T15:19:24;15.90;;;12.60;;
44026;SDS011;29696;55.698;37.460;2022-11-20T15:21:52;21.17;;;13.97;;
44026;SDS011;29696;55.698;37.460;2022-11-20T15:24:18;19.63;;;14.60;;
44026;SDS011;29696;55.698;37.460;2022-11-20T15:26:45;21.53;;;14.47;;
44026;SDS011;29696;55.698;37.460;2022-11-20T15:29:12;20.33;;;11.50;;
44026;SDS011;29696;55.698;37.460;2022-11-20T15:31:44;16.80;;;11.53;;
44026;SDS011;29696;55.698;37.460;2022-11-20T15:34:11;22.47;;;12.30;;
44026;SDS011;29696;55.698;37.460;2022-11-20T15:36:39;16.23;;;11.03;;
44026;SDS011;29696;55.698;37.460;2022-11-20T15:39:06;17.97;;;11.30;;
44026;SDS011;29696;55.698;37.460;2022-11-20T15:41:34;15.30;;;11.50;;
44026;SDS011;29696;55.698;37.460;2022-11-20T15:44:01;16.37;;;11.37;;
44026;SDS011;29696;55.698;37.460;2022-11-20T15:46:29;19.67;;;11.97;;
44026;SDS011;29696;55.698;37.460;2022-11-20T15:49:03;15.38;;;11.75;;
44026;SDS011;29696;55.698;37.460;2022-11-20T15:51:31;18.23;;;11.60;;
44026;SDS011;29696;55.698;37.460;2022-11-20T15:54:01;16.10;;;12.67;;
44026;SDS011;29696;55.698;37.460;2022-11-20T15:56:48;18.43;;;11.43;;
44026;SDS011;29696;55.698;37.460;2022-11-20T15:59:18;15.40;;;12.37;;
44026;SDS011;29696;55.698;37.460;2022-11-20T16:01:44;20.07;;;13.97;;
44026;SDS011;29696;55.698;37.460;2022-11-20T16:04:11;19.40;;;10.33;;
44026;SDS011;29696;55.698;37.460;2022-11-20T16:06:39;18.43;;;11.57;;
44026;SDS011;29696;55.698;37.460;2022-11-20T16:09:06;16.87;;;12.57;;
44026;SDS011;29696;55.698;37.460;2022-11-20T16:11:33;16.77;;;12.77;;
44026;SDS011;29696;55.698;37.460;2022-11-20T16:14:04;16.23;;;11.77;;
44026;SDS011;29696;55.698;37.460;2022-11-20T16:16:49;15.83;;;12.33;;
44026;SDS011;29696;55.698;37.460;2022-11-20T16:19:16;15.27;;;10.97;;
44026;SDS011;29696;55.698;37.460;2022-11-20T16:21:43;17.63;;;12.63;;
44026;SDS011;29696;55.698;37.460;2022-11-20T16:24:11;17.90;;;12.17;;
44026;SDS011;29696;55.698;37.460;2022-11-20T16:26:39;20.97;;;13.03;;
44026;SDS011;29696;55.698;37.460;2022-11-20T16:29:06;17.80;;;12.10;;
44026;SDS011;29696;55.698;37.460;2022-11-20T16:31:33;18.53;;;13.80;;